createdAt,value
2022-10-04T00:00:55.190Z,21.25
2022-10-04T00:03:58.173Z,20.92
2022-10-04T00:06:56.194Z,21.08
2022-10-04T00:09:33.432Z,19.05
2022-10-04T00:12:40.192Z,19.25
2022-10-04T00:15:36.206Z,20.98
2022-10-04T00:18:51.215Z,21.73
2022-10-04T00:22:02.196Z,19.98
2022-10-04T00:24:37.314Z,19.48
2022-10-04T00:27:28.210Z,18.23
2022-10-04T00:30:17.207Z,18.10
2022-10-04T00:33:15.212Z,20.67
2022-10-04T00:36:02.188Z,20.13
2022-10-04T00:38:42.226Z,20.10
2022-10-04T00:41:30.222Z,18.48
2022-10-04T00:44:05.267Z,18.40
2022-10-04T00:46:55.209Z,19.70
2022-10-04T00:49:32.265Z,20.92
2022-10-04T00:52:26.227Z,20.52
2022-10-04T00:55:13.203Z,21.10
2022-10-04T00:58:06.237Z,20.67
2022-10-04T01:00:41.333Z,21.20
2022-10-04T01:03:37.218Z,19.80
2022-10-04T01:06:14.338Z,18.15
2022-10-04T01:09:07.209Z,16.67
2022-10-04T01:11:57.341Z,18.05
2022-10-04T01:15:15.221Z,17.75
2022-10-04T01:18:09.447Z,19.63
2022-10-04T01:21:03.208Z,17.65
2022-10-04T01:23:47.263Z,16.35
2022-10-04T01:26:41.232Z,17.30
2022-10-04T01:29:35.213Z,18.58
2022-10-04T01:32:08.302Z,18.88
2022-10-04T01:34:55.224Z,19.08
2022-10-04T01:37:28.356Z,18.90
2022-10-04T01:40:16.230Z,18.33
2022-10-04T01:42:56.281Z,18.40
2022-10-04T01:46:03.279Z,19.90
2022-10-04T01:48:49.237Z,18.65
2022-10-04T01:51:57.255Z,17.52
2022-10-04T01:54:52.240Z,18.83
2022-10-04T01:57:40.252Z,18.48
2022-10-04T02:00:36.224Z,18.60
2022-10-04T02:03:34.289Z,19.70
2022-10-04T02:06:11.307Z,19.40
2022-10-04T02:09:04.232Z,18.23
2022-10-04T02:11:46.262Z,17.10
2022-10-04T02:14:46.234Z,17.90
2022-10-04T02:17:44.282Z,19.88
2022-10-04T02:20:40.253Z,18.17
2022-10-04T02:23:29.260Z,20.63
2022-10-04T02:26:02.328Z,19.92
2022-10-04T02:28:49.281Z,21.55
2022-10-04T02:31:47.015Z,21.45
2022-10-04T02:34:33.259Z,20.10
2022-10-04T02:37:09.349Z,20.23
2022-10-04T02:40:13.248Z,20.35
2022-10-04T02:43:06.331Z,21.17
2022-10-04T02:46:00.256Z,20.15
2022-10-04T02:48:46.276Z,19.48
2022-10-04T02:51:41.448Z,19.15
2022-10-04T02:54:33.717Z,20.30
2022-10-04T02:57:26.310Z,15.93
2022-10-04T03:00:23.254Z,16.83
2022-10-04T03:03:31.279Z,19.55
2022-10-04T03:06:19.243Z,18.58
2022-10-04T03:09:17.293Z,17.73
2022-10-04T03:12:11.265Z,18.55
2022-10-04T03:15:08.240Z,15.80
2022-10-04T03:17:56.260Z,16.23
2022-10-04T03:20:29.338Z,18.25
2022-10-04T03:23:18.290Z,19.15
2022-10-04T03:26:06.280Z,17.27
2022-10-04T03:29:00.298Z,19.05
2022-10-04T03:31:50.318Z,17.65
2022-10-04T03:34:27.405Z,17.98
2022-10-04T03:37:21.287Z,19.35
2022-10-04T03:40:07.269Z,18.80
2022-10-04T03:43:01.297Z,18.15
2022-10-04T03:45:48.326Z,20.15
2022-10-04T03:48:31.307Z,18.90
2022-10-04T03:51:25.306Z,17.02
2022-10-04T03:54:09.300Z,18.63
2022-10-04T03:57:05.291Z,20.02
2022-10-04T04:00:07.313Z,18.83
2022-10-04T04:03:11.289Z,19.38
2022-10-04T04:06:04.285Z,18.40
2022-10-04T04:08:43.396Z,19.70
2022-10-04T04:11:33.298Z,19.73
2022-10-04T04:14:17.306Z,19.08
2022-10-04T04:17:33.304Z,17.25
2022-10-04T04:20:10.376Z,19.88
2022-10-04T04:23:05.303Z,16.90
2022-10-04T04:25:50.285Z,15.52
2022-10-04T04:28:52.300Z,15.13
2022-10-04T04:31:52.339Z,14.02
2022-10-04T04:34:31.441Z,15.55
2022-10-04T04:37:18.313Z,17.02
2022-10-04T04:39:57.916Z,19.92
2022-10-04T04:42:44.330Z,18.77
2022-10-04T04:45:33.461Z,15.98
2022-10-04T04:48:23.315Z,15.52
2022-10-04T04:51:08.323Z,13.88
2022-10-04T04:53:56.334Z,16.75
2022-10-04T04:56:34.400Z,17.80
2022-10-04T04:59:22.322Z,33.30
2022-10-04T05:01:55.486Z,18.35
2022-10-04T05:04:42.305Z,21.58
2022-10-04T05:07:23.416Z,16.25
2022-10-04T05:10:39.294Z,15.73
2022-10-04T05:13:20.360Z,17.85
2022-10-04T05:16:08.343Z,15.15
2022-10-04T05:18:41.423Z,17.02
2022-10-04T05:21:33.323Z,15.93
2022-10-04T05:24:19.396Z,16.80
2022-10-04T05:27:10.321Z,18.10
2022-10-04T05:29:50.789Z,18.95
2022-10-04T05:32:46.339Z,15.30
2022-10-04T05:35:28.446Z,16.48
2022-10-04T05:38:42.328Z,17.40
2022-10-04T05:41:34.397Z,17.95
2022-10-04T05:44:52.355Z,13.55
2022-10-04T05:47:35.353Z,16.55
2022-10-04T05:50:43.351Z,14.77
2022-10-04T05:53:40.349Z,18.50
2022-10-04T05:56:27.411Z,16.40
2022-10-04T05:59:29.343Z,14.63
2022-10-04T06:02:15.382Z,14.73
2022-10-04T06:05:06.349Z,14.70
2022-10-04T06:07:45.476Z,16.63
2022-10-04T06:10:59.366Z,16.67
2022-10-04T06:14:20.420Z,14.50
2022-10-04T06:17:29.366Z,14.40
2022-10-04T06:20:37.418Z,14.07
2022-10-04T06:23:25.358Z,15.55
2022-10-04T06:26:14.372Z,14.90
2022-10-04T06:29:17.376Z,14.57
2022-10-04T06:32:00.456Z,14.13
2022-10-04T06:34:59.336Z,14.85
2022-10-04T06:38:31.392Z,16.52
2022-10-04T06:41:50.332Z,16.55
2022-10-04T06:44:46.431Z,14.85
2022-10-04T06:48:02.355Z,14.68
2022-10-04T06:51:01.364Z,18.75
2022-10-04T06:53:47.356Z,17.48
2022-10-04T06:57:16.375Z,17.40
2022-10-04T07:00:18.353Z,17.25
2022-10-04T07:03:23.392Z,17.42
2022-10-04T07:06:12.384Z,18.80
2022-10-04T07:09:01.520Z,17.90
2022-10-04T07:11:56.505Z,18.80
2022-10-04T07:14:40.438Z,17.95
2022-10-04T07:17:39.422Z,15.93
2022-10-04T07:20:14.420Z,16.95
2022-10-04T07:23:12.382Z,18.52
2022-10-04T07:26:01.453Z,15.00
2022-10-04T07:29:09.402Z,17.15
2022-10-04T07:31:50.395Z,19.17
2022-10-04T07:34:41.379Z,19.13
2022-10-04T07:37:19.497Z,17.50
2022-10-04T07:40:25.374Z,16.05
2022-10-04T07:43:16.390Z,16.55
2022-10-04T07:46:25.440Z,18.33
2022-10-04T07:49:20.384Z,17.30
2022-10-04T07:52:11.443Z,17.70
2022-10-04T07:55:03.421Z,15.52
2022-10-04T07:58:07.213Z,15.38
2022-10-04T08:01:30.441Z,17.20
2022-10-04T08:04:36.402Z,18.92
2022-10-04T08:07:27.402Z,15.07
2022-10-04T08:11:02.395Z,16.08
2022-10-04T08:13:59.409Z,15.77
2022-10-04T08:16:43.639Z,16.13
2022-10-04T08:19:39.406Z,16.50
2022-10-04T08:22:27.532Z,14.38
2022-10-04T08:25:32.404Z,15.25
2022-10-04T08:28:39.415Z,15.80
2022-10-04T08:31:45.411Z,17.45
2022-10-04T08:34:51.413Z,17.45
2022-10-04T08:37:53.813Z,17.25
2022-10-04T08:41:07.434Z,15.32
2022-10-04T08:44:03.417Z,15.35
2022-10-04T08:47:58.411Z,17.88
2022-10-04T08:51:37.419Z,18.58
2022-10-04T08:55:08.425Z,16.65
2022-10-04T08:58:08.410Z,15.60
2022-10-04T09:01:10.466Z,16.65
2022-10-04T09:04:41.409Z,16.25
2022-10-04T09:08:11.421Z,14.80
2022-10-04T09:10:57.429Z,17.13
2022-10-04T09:13:51.425Z,14.82
2022-10-04T09:16:38.428Z,13.38
2022-10-04T09:20:04.870Z,18.35
2022-10-04T09:23:11.511Z,17.33
2022-10-04T09:26:35.423Z,16.13
2022-10-04T09:29:11.493Z,17.70
2022-10-04T09:32:23.452Z,16.70
2022-10-04T09:35:01.433Z,15.90
2022-10-04T09:37:54.448Z,20.15
2022-10-04T09:41:02.023Z,16.67
2022-10-04T09:44:25.431Z,17.85
2022-10-04T09:47:10.639Z,16.83
2022-10-04T09:50:24.448Z,15.35
2022-10-04T09:53:38.457Z,18.27
2022-10-04T09:56:46.798Z,15.77
2022-10-04T10:00:25.478Z,15.70
2022-10-04T10:03:23.700Z,16.63
2022-10-04T10:06:10.443Z,16.88
2022-10-04T10:09:51.446Z,18.38
2022-10-04T10:13:03.439Z,17.67
2022-10-04T10:16:06.485Z,16.10
2022-10-04T10:19:30.467Z,18.08
2022-10-04T10:22:48.452Z,17.38
2022-10-04T10:26:11.469Z,19.55
2022-10-04T10:29:04.432Z,21.35
2022-10-04T10:31:57.530Z,20.42
2022-10-04T10:35:21.451Z,17.13
2022-10-04T10:38:04.410Z,18.88
2022-10-04T10:40:51.447Z,18.77
2022-10-04T10:43:53.475Z,17.42
2022-10-04T10:47:05.467Z,17.58
2022-10-04T10:49:55.466Z,17.65
2022-10-04T10:52:46.493Z,16.60
2022-10-04T10:56:05.453Z,16.83
2022-10-04T10:59:12.494Z,17.38
2022-10-04T11:02:25.635Z,18.92
2022-10-04T11:05:55.471Z,16.88
2022-10-04T11:08:41.475Z,16.73
2022-10-04T11:11:53.483Z,16.77
2022-10-04T11:14:35.621Z,15.27
2022-10-04T11:17:42.474Z,15.05
2022-10-04T11:20:28.560Z,15.23
2022-10-04T11:23:52.499Z,16.48
2022-10-04T11:27:07.465Z,17.80
2022-10-04T11:30:29.486Z,17.13
2022-10-04T11:33:50.477Z,16.10
2022-10-04T11:36:35.563Z,14.63
2022-10-04T11:40:10.493Z,15.35
2022-10-04T11:43:20.492Z,16.45
2022-10-04T11:46:25.498Z,15.25
2022-10-04T11:49:12.502Z,17.13
2022-10-04T11:52:02.096Z,15.95
2022-10-04T11:55:24.501Z,15.40
2022-10-04T11:58:28.499Z,17.10
2022-10-04T12:01:25.495Z,16.48
2022-10-04T12:04:54.526Z,15.38
2022-10-04T12:08:09.538Z,16.67
2022-10-04T12:10:47.580Z,15.75
2022-10-04T12:13:46.482Z,16.40
2022-10-04T12:16:50.023Z,15.38
2022-10-04T12:19:46.483Z,15.75
2022-10-04T12:22:49.523Z,15.15
2022-10-04T12:26:00.496Z,14.10
2022-10-04T12:29:29.544Z,19.90
2022-10-04T12:32:24.672Z,18.77
2022-10-04T12:35:42.527Z,18.20
2022-10-04T12:38:49.822Z,18.73
2022-10-04T12:41:42.528Z,18.63
2022-10-04T12:44:40.930Z,20.77
2022-10-04T12:47:58.520Z,18.40
2022-10-04T12:51:00.590Z,18.63
2022-10-04T12:54:13.555Z,20.05
2022-10-04T12:57:08.588Z,15.77
2022-10-04T12:59:55.509Z,17.38
2022-10-04T13:02:41.547Z,21.58
2022-10-04T13:06:02.534Z,18.95
2022-10-04T13:09:04.527Z,19.95
2022-10-04T13:12:11.529Z,19.13
2022-10-04T13:15:19.526Z,19.67
2022-10-04T13:18:17.526Z,18.75
2022-10-04T13:21:07.528Z,19.77
2022-10-04T13:23:59.530Z,19.17
2022-10-04T13:27:06.557Z,18.00
2022-10-04T13:30:12.554Z,18.25
2022-10-04T13:33:08.547Z,20.73
2022-10-04T13:35:56.527Z,21.33
2022-10-04T13:39:10.549Z,19.73
2022-10-04T13:42:12.444Z,20.88
2022-10-04T13:45:01.564Z,19.17
2022-10-04T13:48:13.146Z,17.80
2022-10-04T13:51:32.550Z,19.70
2022-10-04T13:55:06.548Z,19.75
2022-10-04T13:58:04.545Z,17.63
2022-10-04T14:00:57.591Z,20.92
2022-10-04T14:03:39.683Z,20.00
2022-10-04T14:06:43.571Z,19.08
2022-10-04T14:09:36.834Z,19.45
2022-10-04T14:12:41.578Z,20.42
2022-10-04T14:15:28.701Z,18.83
2022-10-04T14:18:23.469Z,18.15
2022-10-04T14:21:19.232Z,19.17
2022-10-04T14:24:53.580Z,18.65
2022-10-04T14:27:43.568Z,18.92
2022-10-04T14:30:52.545Z,20.63
2022-10-04T14:33:39.558Z,19.80
2022-10-04T14:36:52.587Z,19.17
2022-10-04T14:40:21.558Z,17.73
2022-10-04T14:43:27.564Z,17.05
2022-10-04T14:46:13.210Z,20.02
2022-10-04T14:49:16.568Z,23.48
2022-10-04T14:51:53.978Z,18.23
2022-10-04T14:55:13.584Z,17.88
2022-10-04T14:57:52.668Z,17.95
2022-10-04T15:01:10.598Z,19.40
2022-10-04T15:04:17.695Z,16.92
2022-10-04T15:07:10.588Z,21.02
2022-10-04T15:10:18.569Z,18.70
2022-10-04T15:13:16.647Z,17.52
2022-10-04T15:16:40.574Z,17.23
2022-10-04T15:19:28.652Z,17.95
2022-10-04T15:22:29.599Z,17.17
2022-10-04T15:25:03.446Z,20.15
2022-10-04T15:28:00.647Z,22.85
2022-10-04T15:30:43.784Z,22.85
2022-10-04T15:33:33.597Z,22.30
2022-10-04T15:36:38.612Z,25.60
2022-10-04T15:39:45.595Z,28.83
2022-10-04T15:42:39.598Z,24.73
2022-10-04T15:45:21.671Z,22.30
2022-10-04T15:48:17.597Z,21.88
2022-10-04T15:51:11.162Z,18.75
2022-10-04T15:54:22.612Z,18.88
2022-10-04T15:57:02.672Z,18.60
2022-10-04T16:00:00.584Z,20.48
2022-10-04T16:03:21.744Z,24.35
2022-10-04T16:06:32.607Z,25.85
2022-10-04T16:09:33.609Z,29.55
2022-10-04T16:12:42.611Z,32.80
2022-10-04T16:15:44.627Z,31.77
2022-10-04T16:18:36.827Z,33.45
2022-10-04T16:21:26.614Z,34.58
2022-10-04T16:24:28.968Z,39.13
2022-10-04T16:27:29.604Z,29.58
2022-10-04T16:30:27.004Z,26.98
2022-10-04T16:33:33.710Z,27.90
2022-10-04T16:36:22.702Z,27.23
2022-10-04T16:39:29.617Z,26.85
2022-10-04T16:42:19.641Z,25.25
2022-10-04T16:45:38.713Z,23.52
2022-10-04T16:48:38.786Z,31.40
2022-10-04T16:51:25.629Z,25.60
2022-10-04T16:54:28.625Z,27.80
2022-10-04T16:57:20.642Z,23.60
2022-10-04T17:00:00.765Z,26.60
2022-10-04T17:03:21.636Z,31.23
2022-10-04T17:06:26.644Z,52.08
2022-10-04T17:09:35.656Z,61.50
2022-10-04T17:12:43.621Z,48.13
2022-10-04T17:15:44.688Z,43.38
2022-10-04T17:18:42.633Z,31.33
2022-10-04T17:21:48.637Z,28.40
2022-10-04T17:25:01.639Z,25.80
2022-10-04T17:28:03.706Z,24.48
2022-10-04T17:31:32.720Z,20.88
2022-10-04T17:34:34.671Z,20.17
2022-10-04T17:37:22.743Z,27.80
2022-10-04T17:40:18.705Z,47.40
2022-10-04T17:43:22.785Z,92.55
2022-10-04T17:46:35.705Z,99.28
2022-10-04T17:49:40.679Z,117.55
2022-10-04T17:53:08.655Z,130.38
2022-10-04T17:55:55.814Z,138.20
2022-10-04T17:59:05.631Z,100.13
2022-10-04T18:01:44.821Z,69.10
2022-10-04T18:04:36.652Z,56.70
2022-10-04T18:07:30.667Z,47.95
2022-10-04T18:10:36.703Z,49.13
2022-10-04T18:14:08.720Z,40.80
2022-10-04T18:17:08.702Z,38.80
2022-10-04T18:20:03.665Z,41.90
2022-10-04T18:23:02.690Z,46.95
2022-10-04T18:25:56.679Z,49.60
2022-10-04T18:28:43.682Z,40.65
2022-10-04T18:31:37.875Z,42.90
2022-10-04T18:34:34.680Z,41.03
2022-10-04T18:37:34.869Z,37.13
2022-10-04T18:40:34.658Z,36.35
2022-10-04T18:43:07.743Z,36.60
2022-10-04T18:46:08.762Z,40.70
2022-10-04T18:48:47.464Z,36.28
2022-10-04T18:51:48.694Z,40.10
2022-10-04T18:54:45.486Z,38.95
2022-10-04T18:58:07.682Z,35.65
2022-10-04T19:01:14.710Z,35.25
2022-10-04T19:04:09.682Z,29.90
2022-10-04T19:06:51.678Z,46.00
2022-10-04T19:10:03.683Z,38.03
2022-10-04T19:13:05.699Z,33.08
2022-10-04T19:16:08.804Z,30.65
2022-10-04T19:19:02.751Z,46.90
2022-10-04T19:21:48.683Z,43.10
2022-10-04T19:25:10.714Z,29.77
2022-10-04T19:28:20.779Z,28.67
2022-10-04T19:31:18.847Z,24.90
2022-10-04T19:34:21.699Z,26.83
2022-10-04T19:36:59.769Z,25.48
2022-10-04T19:39:54.683Z,25.92
2022-10-04T19:43:09.692Z,26.15
2022-10-04T19:46:21.703Z,24.70
2022-10-04T19:49:09.724Z,24.65
2022-10-04T19:51:51.269Z,23.75
2022-10-04T19:54:45.718Z,32.30
2022-10-04T19:57:28.726Z,50.22
2022-10-04T20:00:26.695Z,51.70
2022-10-04T20:03:24.725Z,66.30
2022-10-04T20:06:19.725Z,57.95
2022-10-04T20:09:28.708Z,41.65
2022-10-04T20:12:08.764Z,37.50
2022-10-04T20:15:02.727Z,32.80
2022-10-04T20:17:51.718Z,65.35
2022-10-04T20:20:57.840Z,62.25
2022-10-04T20:23:56.497Z,52.33
2022-10-04T20:27:12.746Z,33.33
2022-10-04T20:29:45.949Z,53.90
2022-10-04T20:32:43.743Z,35.35
2022-10-04T20:35:25.747Z,32.38
2022-10-04T20:38:31.267Z,31.77
2022-10-04T20:41:11.724Z,34.95
2022-10-04T20:44:07.735Z,37.50
2022-10-04T20:46:47.256Z,35.92
2022-10-04T20:49:34.721Z,31.75
2022-10-04T20:52:07.805Z,32.63
2022-10-04T20:55:01.758Z,30.80
2022-10-04T20:57:40.605Z,31.27
2022-10-04T21:00:29.739Z,35.28
2022-10-04T21:03:27.733Z,35.25
2022-10-04T21:06:16.725Z,33.00
2022-10-04T21:08:56.750Z,39.15
2022-10-04T21:11:58.780Z,40.65
2022-10-04T21:14:45.742Z,35.20
2022-10-04T21:17:37.261Z,37.05
2022-10-04T21:20:56.723Z,48.13
2022-10-04T21:23:44.758Z,41.17
2022-10-04T21:26:31.735Z,37.10
2022-10-04T21:29:04.821Z,36.33
2022-10-04T21:31:51.793Z,35.03
2022-10-04T21:34:51.951Z,31.60
2022-10-04T21:37:46.752Z,34.35
2022-10-04T21:40:33.733Z,33.15
2022-10-04T21:43:06.867Z,29.83
2022-10-04T21:45:54.179Z,33.80
2022-10-04T21:48:34.756Z,32.53
2022-10-04T21:51:21.751Z,35.47
2022-10-04T21:53:57.806Z,31.05
2022-10-04T21:56:44.925Z,28.75
2022-10-04T21:59:18.815Z,31.48
2022-10-04T22:02:05.786Z,28.58
2022-10-04T22:04:38.827Z,28.80
2022-10-04T22:07:25.754Z,28.48
2022-10-04T22:10:05.784Z,26.15
2022-10-04T22:12:52.751Z,30.75
2022-10-04T22:15:32.769Z,25.45
2022-10-04T22:18:26.758Z,26.67
2022-10-04T22:21:13.770Z,27.48
2022-10-04T22:23:48.857Z,27.35
2022-10-04T22:26:35.752Z,32.55
2022-10-04T22:29:08.863Z,30.35
2022-10-04T22:31:57.802Z,34.83
2022-10-04T22:34:30.842Z,25.98
2022-10-04T22:37:18.762Z,24.15
2022-10-04T22:39:52.148Z,25.27
2022-10-04T22:42:38.757Z,36.55
2022-10-04T22:45:42.808Z,28.63
2022-10-04T22:48:36.783Z,29.52
2022-10-04T22:51:23.753Z,29.90
2022-10-04T22:53:56.843Z,26.20
2022-10-04T22:56:44.140Z,28.55
2022-10-04T22:59:26.786Z,29.08
2022-10-04T23:02:20.796Z,30.88
2022-10-04T23:05:05.811Z,26.67
2022-10-04T23:08:00.785Z,24.10
2022-10-04T23:10:47.787Z,28.88
2022-10-04T23:13:24.573Z,33.35
2022-10-04T23:16:24.816Z,39.85
2022-10-04T23:19:06.866Z,28.38
2022-10-04T23:21:55.781Z,28.08
2022-10-04T23:24:29.850Z,26.00
2022-10-04T23:27:22.815Z,27.05
2022-10-04T23:30:03.367Z,26.65
2022-10-04T23:32:51.818Z,39.20
2022-10-04T23:35:36.803Z,23.95
2022-10-04T23:38:33.797Z,28.17
2022-10-04T23:41:20.811Z,40.20
2022-10-04T23:43:55.865Z,33.50
2022-10-04T23:46:42.994Z,38.88
2022-10-04T23:49:23.572Z,22.85
2022-10-04T23:52:10.807Z,28.88
2022-10-04T23:54:43.858Z,27.15
2022-10-04T23:57:32.792Z,39.13
